createdAt,value
2023-09-07T00:04:23.548Z,11.7
2023-09-07T00:14:37.510Z,11.7
2023-09-07T00:19:43.709Z,11.7
2023-09-07T00:24:51.627Z,11.7
2023-09-07T00:29:57.780Z,11.6
2023-09-07T00:35:05.725Z,11.6
2023-09-07T00:40:11.916Z,11.5
2023-09-07T00:45:18.091Z,11.5
2023-09-07T00:50:26.045Z,11.5
2023-09-07T00:55:34.500Z,11.5
2023-09-07T01:00:42.024Z,11.5
2023-09-07T01:05:48.162Z,11.4
2023-09-07T01:10:56.074Z,11.4
2023-09-07T01:16:04.259Z,11.3
2023-09-07T01:21:11.990Z,11.4
2023-09-07T01:26:19.906Z,11.4
2023-09-07T01:31:27.967Z,11.4
2023-09-07T01:36:35.844Z,11.3
2023-09-07T01:41:43.795Z,11.2
2023-09-07T01:51:59.719Z,11.1
2023-09-07T01:57:07.691Z,11.1
2023-09-07T02:02:13.894Z,11.2
2023-09-07T02:07:21.769Z,11.1
2023-09-07T02:12:27.975Z,11
2023-09-07T02:17:36.080Z,11
2023-09-07T02:22:43.891Z,10.9
2023-09-07T02:27:51.806Z,11
2023-09-07T02:32:59.806Z,11
2023-09-07T02:38:05.983Z,11
2023-09-07T02:43:12.128Z,10.9
2023-09-07T02:48:20.200Z,10.8
2023-09-07T02:53:26.207Z,10.8
2023-09-07T02:58:34.537Z,10.8
2023-09-07T03:03:42.226Z,10.8
2023-09-07T03:08:50.065Z,10.8
2023-09-07T03:13:58.093Z,10.7
2023-09-07T03:19:06.017Z,10.7
2023-09-07T03:24:13.939Z,10.7
2023-09-07T03:29:20.110Z,10.7
2023-09-07T03:34:28.071Z,10.6
2023-09-07T03:39:36.035Z,10.6
2023-09-07T03:49:50.109Z,10.5
2023-09-07T03:54:56.290Z,10.5
2023-09-07T04:00:04.251Z,10.5
2023-09-07T04:05:12.213Z,10.5
2023-09-07T04:10:20.181Z,10.5
2023-09-07T04:15:26.308Z,10.4
2023-09-07T04:20:34.248Z,10.4
2023-09-07T04:25:40.548Z,10.5
2023-09-07T04:30:48.410Z,10.4
2023-09-07T04:35:54.542Z,10.4
2023-09-07T04:41:02.550Z,10.4
2023-09-07T04:46:10.515Z,10.4
2023-09-07T04:51:18.451Z,10.4
2023-09-07T04:56:26.394Z,10.4
2023-09-07T05:01:34.339Z,10.3
2023-09-07T05:06:42.312Z,10.3
2023-09-07T05:11:50.220Z,10.3
2023-09-07T05:16:58.239Z,10.3
2023-09-07T05:22:06.152Z,10.3
2023-09-07T05:27:14.107Z,10.3
2023-09-07T05:32:22.037Z,10.2
2023-09-07T05:37:30.052Z,10.2
2023-09-07T05:42:37.982Z,10.3
2023-09-07T05:47:46.023Z,10.3
2023-09-07T05:52:53.887Z,10.2
2023-09-07T05:58:04.236Z,10.2
2023-09-07T06:08:17.750Z,10.3
2023-09-07T06:13:25.727Z,10.3
2023-09-07T06:18:32.157Z,10.3
2023-09-07T06:23:38.189Z,10.3
2023-09-07T06:28:46.053Z,10.4
2023-09-07T06:33:52.232Z,10.4
2023-09-07T06:39:00.135Z,10.4
2023-09-07T06:44:06.290Z,10.5
2023-09-07T06:49:14.286Z,10.5
2023-09-07T06:59:26.588Z,10.7
2023-09-07T07:04:34.661Z,10.8
2023-09-07T07:09:42.517Z,10.8
2023-09-07T07:14:50.453Z,10.9
2023-09-07T07:19:58.508Z,11
2023-09-07T07:25:06.388Z,11
2023-09-07T07:30:12.581Z,11.1
2023-09-07T07:35:20.484Z,11.2
2023-09-07T07:40:28.441Z,11.2
2023-09-07T07:45:34.610Z,11.2
2023-09-07T07:50:42.588Z,11.3
2023-09-07T07:55:50.492Z,11.4
2023-09-07T08:00:56.642Z,11.5
2023-09-07T08:06:02.880Z,11.5
2023-09-07T08:11:10.785Z,11.5
2023-09-07T08:16:19.022Z,11.6
2023-09-07T08:21:26.701Z,11.6
2023-09-07T08:26:34.627Z,11.8
2023-09-07T08:31:42.710Z,11.9
2023-09-07T08:36:50.535Z,11.9
2023-09-07T08:42:01.095Z,12
2023-09-07T08:47:06.477Z,12.1
2023-09-07T08:52:14.434Z,12.1
2023-09-07T08:57:22.350Z,12.2
2023-09-07T09:02:30.473Z,12.3
2023-09-07T09:07:38.271Z,12.4
2023-09-07T09:12:46.234Z,12.4
2023-09-07T09:17:52.494Z,12.5
2023-09-07T09:23:00.376Z,12.8
2023-09-07T09:28:08.371Z,12.8
2023-09-07T09:33:16.294Z,12.9
2023-09-07T09:38:24.219Z,13.1
2023-09-07T09:43:32.246Z,13.2
2023-09-07T09:48:40.230Z,13.2
2023-09-07T09:53:48.068Z,13.4
2023-09-07T09:58:56.123Z,13.6
2023-09-07T10:04:04.088Z,13.5
2023-09-07T10:09:12.010Z,13.8
2023-09-07T10:14:19.949Z,13.9
2023-09-07T10:19:27.870Z,13.9
2023-09-07T10:24:35.810Z,14
2023-09-07T10:29:41.981Z,14
2023-09-07T10:34:48.155Z,14.2
2023-09-07T10:39:56.124Z,14.2
2023-09-07T10:45:02.322Z,14.3
2023-09-07T10:50:10.219Z,14.3
2023-09-07T10:55:18.243Z,14.4
2023-09-07T11:00:26.119Z,14.5
2023-09-07T11:05:34.106Z,14.6
2023-09-07T11:10:41.997Z,14.7
2023-09-07T11:15:49.978Z,14.8
2023-09-07T11:20:56.139Z,14.8
2023-09-07T11:26:04.135Z,14.9
2023-09-07T11:31:10.266Z,15
2023-09-07T11:36:18.241Z,15.1
2023-09-07T11:41:24.445Z,15.1
2023-09-07T11:46:32.374Z,15.2
2023-09-07T11:51:38.609Z,15.3
2023-09-07T11:56:46.430Z,15.2
2023-09-07T12:01:52.680Z,15.3
2023-09-07T12:07:00.660Z,15.5
2023-09-07T12:12:06.731Z,15.5
2023-09-07T12:17:14.893Z,15.5
2023-09-07T12:22:22.627Z,15.6
2023-09-07T12:27:36.939Z,15.7
2023-09-07T12:32:36.787Z,15.8
2023-09-07T12:37:42.994Z,15.8
2023-09-07T12:42:49.219Z,16.1
2023-09-07T12:47:57.071Z,16.2
2023-09-07T12:53:03.321Z,16.2
2023-09-07T12:58:11.149Z,16.2
2023-09-07T13:03:19.226Z,16.3
2023-09-07T13:08:25.265Z,16.4
2023-09-07T13:13:33.481Z,16.3
2023-09-07T13:18:41.167Z,16.4
2023-09-07T13:23:49.171Z,16.5
2023-09-07T13:28:57.067Z,16.6
2023-09-07T13:34:05.082Z,16.7
2023-09-07T13:39:12.989Z,16.8
2023-09-07T13:44:20.960Z,16.9
2023-09-07T13:49:28.942Z,16.8
2023-09-07T13:54:36.865Z,16.8
2023-09-07T13:59:44.819Z,16.9
2023-09-07T14:04:52.745Z,16.8
2023-09-07T14:10:00.724Z,16.9
2023-09-07T14:15:08.669Z,16.8
2023-09-07T14:20:16.645Z,16.9
2023-09-07T14:25:24.570Z,17
2023-09-07T14:30:32.565Z,17
2023-09-07T14:35:40.524Z,17
2023-09-07T14:40:48.459Z,17.1
2023-09-07T14:45:56.532Z,17.1
2023-09-07T14:51:04.336Z,17.1
2023-09-07T14:56:10.531Z,17.1
2023-09-07T15:01:16.938Z,17.2
2023-09-07T15:11:30.808Z,17.3
2023-09-07T15:16:38.836Z,17.2
2023-09-07T15:21:46.695Z,17.1
2023-09-07T15:26:52.890Z,17.3
2023-09-07T15:31:59.059Z,17.3
2023-09-07T15:37:06.984Z,17.4
2023-09-07T15:42:14.932Z,17.4
2023-09-07T15:47:21.134Z,17.5
2023-09-07T15:52:29.044Z,17.5
2023-09-07T15:57:36.988Z,17.5
2023-09-07T16:02:43.290Z,17.3
2023-09-07T16:07:49.338Z,17.3
2023-09-07T16:12:55.494Z,17.2
2023-09-07T16:18:01.741Z,17.3
2023-09-07T16:23:09.718Z,17
2023-09-07T16:28:17.559Z,17
2023-09-07T16:33:25.585Z,16.9
2023-09-07T16:38:32.020Z,16.9
2023-09-07T16:43:39.614Z,16.9
2023-09-07T16:48:45.896Z,17
2023-09-07T16:53:53.783Z,16.9
2023-09-07T17:04:09.697Z,17
2023-09-07T17:09:17.600Z,16.7
2023-09-07T17:14:25.608Z,16.8
2023-09-07T17:19:33.495Z,16.7
2023-09-07T17:24:41.521Z,16.7
2023-09-07T17:29:49.413Z,16.6
2023-09-07T17:34:57.349Z,16.5
2023-09-07T17:40:05.298Z,16.4
2023-09-07T17:50:21.261Z,16.2
2023-09-07T17:55:29.199Z,16.2
2023-09-07T18:00:37.166Z,16.1
2023-09-07T18:05:45.094Z,15.8
2023-09-07T18:10:53.020Z,15.9
2023-09-07T18:16:01.003Z,15.8
2023-09-07T18:21:08.988Z,15.6
2023-09-07T18:26:16.891Z,15.5
2023-09-07T18:31:24.920Z,15.4
2023-09-07T18:41:40.768Z,15.2
2023-09-07T18:46:48.840Z,15.2
2023-09-07T18:51:56.663Z,15.1
2023-09-07T18:57:04.647Z,15
2023-09-07T19:02:10.784Z,14.9
2023-09-07T19:07:16.961Z,14.8
2023-09-07T19:12:24.911Z,14.8
2023-09-07T19:17:31.183Z,14.7
2023-09-07T19:22:39.042Z,14.7
2023-09-07T19:27:46.989Z,14.6
2023-09-07T19:32:53.164Z,14.6
2023-09-07T19:37:59.304Z,14.5
2023-09-07T19:43:07.252Z,14.4
2023-09-07T19:48:13.508Z,14.2
2023-09-07T19:53:19.603Z,14.2
2023-09-07T19:58:25.782Z,14.1
2023-09-07T20:03:32.061Z,14
2023-09-07T20:08:39.891Z,13.9
2023-09-07T20:13:46.079Z,13.8
2023-09-07T20:18:52.241Z,13.8
2023-09-07T20:24:00.185Z,13.7
2023-09-07T20:29:08.112Z,13.6
2023-09-07T20:34:16.093Z,13.5
2023-09-07T20:39:24.060Z,13.5
2023-09-07T20:44:31.997Z,13.5
2023-09-07T20:49:39.924Z,13.4
2023-09-07T20:59:54.100Z,13.2
2023-09-07T21:05:00.200Z,13.2
2023-09-07T21:10:08.184Z,13.1
2023-09-07T21:15:16.136Z,13
2023-09-07T21:20:24.094Z,13
2023-09-07T21:25:32.048Z,12.9
2023-09-07T21:30:40.028Z,12.9
2023-09-07T21:35:47.925Z,12.8
2023-09-07T21:40:55.890Z,12.7
2023-09-07T21:46:03.890Z,12.7
2023-09-07T21:51:11.809Z,12.7
2023-09-07T21:56:19.819Z,12.7
2023-09-07T22:01:27.702Z,12.6
2023-09-07T22:11:43.625Z,12.5
2023-09-07T22:16:51.647Z,12.4
2023-09-07T22:21:59.518Z,12.4
2023-09-07T22:27:07.551Z,12.3
2023-09-07T22:32:15.444Z,12.3
2023-09-07T22:37:23.381Z,12.2
2023-09-07T22:47:39.329Z,12.1
2023-09-07T22:52:47.272Z,12.1
2023-09-07T22:57:55.207Z,12.1
2023-09-07T23:03:03.319Z,12.1
2023-09-07T23:08:11.153Z,12
2023-09-07T23:13:19.089Z,12
2023-09-07T23:23:34.986Z,11.9
2023-09-07T23:28:41.147Z,11.9
2023-09-07T23:33:47.394Z,11.8
2023-09-07T23:38:55.287Z,11.8
2023-09-07T23:44:03.241Z,11.8
2023-09-07T23:49:09.420Z,11.7
2023-09-07T23:54:15.549Z,11.7
2023-09-07T23:59:23.518Z,11.6
